sensor_id;sensor_type;location;lat;lon;timestamp;P1;durP1;ratioP1;P2;durP2;ratioP2
3901;SDS011;1966;49.908;9.156;2022-09-20T00:04:15;4.23;;;3.60;;
3901;SDS011;1966;49.908;9.156;2022-09-20T00:09:14;8.60;;;4.10;;
3901;SDS011;1966;49.908;9.156;2022-09-20T00:14:14;5.63;;;3.57;;
3901;SDS011;1966;49.908;9.156;2022-09-20T00:19:16;6.77;;;3.70;;
3901;SDS011;1966;49.908;9.156;2022-09-20T00:24:15;4.40;;;3.30;;
3901;SDS011;1966;49.908;9.156;2022-09-20T00:29:15;3.60;;;3.30;;
3901;SDS011;1966;49.908;9.156;2022-09-20T00:34:15;5.13;;;3.20;;
3901;SDS011;1966;49.908;9.156;2022-09-20T00:39:32;5.83;;;3.60;;
3901;SDS011;1966;49.908;9.156;2022-09-20T00:49:50;4.37;;;3.90;;
3901;SDS011;1966;49.908;9.156;2022-09-20T00:54:51;3.50;;;3.20;;
3901;SDS011;1966;49.908;9.156;2022-09-20T00:59:50;3.93;;;3.53;;
3901;SDS011;1966;49.908;9.156;2022-09-20T01:04:51;5.20;;;3.13;;
3901;SDS011;1966;49.908;9.156;2022-09-20T01:09:51;4.23;;;3.10;;
3901;SDS011;1966;49.908;9.156;2022-09-20T01:14:51;5.97;;;3.27;;
3901;SDS011;1966;49.908;9.156;2022-09-20T01:19:55;5.67;;;3.40;;
3901;SDS011;1966;49.908;9.156;2022-09-20T01:24:59;3.60;;;3.07;;
3901;SDS011;1966;49.908;9.156;2022-09-20T01:30:07;4.43;;;3.67;;
3901;SDS011;1966;49.908;9.156;2022-09-20T01:35:07;14.53;;;3.47;;
3901;SDS011;1966;49.908;9.156;2022-09-20T01:40:10;3.57;;;3.00;;
3901;SDS011;1966;49.908;9.156;2022-09-20T01:45:14;6.97;;;3.57;;
3901;SDS011;1966;49.908;9.156;2022-09-20T01:50:19;7.00;;;3.57;;
3901;SDS011;1966;49.908;9.156;2022-09-20T01:55:25;4.90;;;3.03;;
3901;SDS011;1966;49.908;9.156;2022-09-20T02:00:33;4.00;;;3.03;;
3901;SDS011;1966;49.908;9.156;2022-09-20T02:05:41;5.33;;;2.80;;
3901;SDS011;1966;49.908;9.156;2022-09-20T02:10:46;6.30;;;3.47;;
3901;SDS011;1966;49.908;9.156;2022-09-20T02:15:59;7.53;;;3.20;;
3901;SDS011;1966;49.908;9.156;2022-09-20T02:21:03;5.07;;;2.83;;
3901;SDS011;1966;49.908;9.156;2022-09-20T02:26:12;4.90;;;2.87;;
3901;SDS011;1966;49.908;9.156;2022-09-20T02:31:15;6.53;;;3.40;;
3901;SDS011;1966;49.908;9.156;2022-09-20T02:36:29;6.10;;;3.20;;
3901;SDS011;1966;49.908;9.156;2022-09-20T02:41:46;4.93;;;3.50;;
3901;SDS011;1966;49.908;9.156;2022-09-20T02:46:51;4.97;;;3.30;;
3901;SDS011;1966;49.908;9.156;2022-09-20T02:51:53;7.80;;;3.93;;
3901;SDS011;1966;49.908;9.156;2022-09-20T02:56:57;8.57;;;3.67;;
3901;SDS011;1966;49.908;9.156;2022-09-20T03:02:02;3.77;;;3.10;;
3901;SDS011;1966;49.908;9.156;2022-09-20T03:07:05;8.63;;;3.50;;
3901;SDS011;1966;49.908;9.156;2022-09-20T03:12:10;5.83;;;3.60;;
3901;SDS011;1966;49.908;9.156;2022-09-20T03:17:16;4.53;;;3.47;;
3901;SDS011;1966;49.908;9.156;2022-09-20T03:22:20;4.30;;;3.20;;
3901;SDS011;1966;49.908;9.156;2022-09-20T03:27:22;4.60;;;3.47;;
3901;SDS011;1966;49.908;9.156;2022-09-20T03:32:30;4.50;;;3.40;;
3901;SDS011;1966;49.908;9.156;2022-09-20T03:37:43;3.77;;;2.93;;
3901;SDS011;1966;49.908;9.156;2022-09-20T03:42:48;7.53;;;3.90;;
3901;SDS011;1966;49.908;9.156;2022-09-20T03:47:58;4.70;;;3.00;;
3901;SDS011;1966;49.908;9.156;2022-09-20T03:53:04;3.30;;;3.00;;
3901;SDS011;1966;49.908;9.156;2022-09-20T03:58:14;4.00;;;3.60;;
3901;SDS011;1966;49.908;9.156;2022-09-20T04:03:26;3.53;;;3.13;;
3901;SDS011;1966;49.908;9.156;2022-09-20T04:08:31;8.40;;;4.00;;
3901;SDS011;1966;49.908;9.156;2022-09-20T04:13:33;4.30;;;3.57;;
3901;SDS011;1966;49.908;9.156;2022-09-20T04:18:36;3.80;;;3.30;;
3901;SDS011;1966;49.908;9.156;2022-09-20T04:23:38;9.13;;;3.53;;
3901;SDS011;1966;49.908;9.156;2022-09-20T04:28:42;5.40;;;3.03;;
3901;SDS011;1966;49.908;9.156;2022-09-20T04:33:46;6.93;;;3.60;;
3901;SDS011;1966;49.908;9.156;2022-09-20T04:38:50;6.27;;;3.17;;
3901;SDS011;1966;49.908;9.156;2022-09-20T04:49:40;8.40;;;3.97;;
3901;SDS011;1966;49.908;9.156;2022-09-20T04:54:58;4.47;;;3.93;;
3901;SDS011;1966;49.908;9.156;2022-09-20T05:00:04;7.00;;;3.80;;
3901;SDS011;1966;49.908;9.156;2022-09-20T05:10:33;5.40;;;3.63;;
3901;SDS011;1966;49.908;9.156;2022-09-20T05:15:40;8.77;;;4.50;;
3901;SDS011;1966;49.908;9.156;2022-09-20T05:20:49;6.17;;;4.60;;
3901;SDS011;1966;49.908;9.156;2022-09-20T05:26:01;9.83;;;4.40;;
3901;SDS011;1966;49.908;9.156;2022-09-20T05:31:05;15.30;;;5.43;;
3901;SDS011;1966;49.908;9.156;2022-09-20T05:36:09;9.33;;;5.87;;
3901;SDS011;1966;49.908;9.156;2022-09-20T05:41:11;8.63;;;5.50;;
3901;SDS011;1966;49.908;9.156;2022-09-20T05:46:16;6.97;;;5.83;;
3901;SDS011;1966;49.908;9.156;2022-09-20T05:51:23;12.30;;;6.07;;
3901;SDS011;1966;49.908;9.156;2022-09-20T05:56:31;12.23;;;5.70;;
3901;SDS011;1966;49.908;9.156;2022-09-20T06:01:33;10.37;;;5.03;;
3901;SDS011;1966;49.908;9.156;2022-09-20T06:06:35;9.90;;;4.93;;
3901;SDS011;1966;49.908;9.156;2022-09-20T06:11:51;7.93;;;5.80;;
3901;SDS011;1966;49.908;9.156;2022-09-20T06:16:55;14.20;;;4.93;;
3901;SDS011;1966;49.908;9.156;2022-09-20T06:21:58;10.10;;;8.20;;
3901;SDS011;1966;49.908;9.156;2022-09-20T06:27:03;7.57;;;5.90;;
3901;SDS011;1966;49.908;9.156;2022-09-20T06:32:05;10.17;;;5.70;;
3901;SDS011;1966;49.908;9.156;2022-09-20T06:37:08;7.70;;;5.27;;
3901;SDS011;1966;49.908;9.156;2022-09-20T06:42:28;9.30;;;5.13;;
3901;SDS011;1966;49.908;9.156;2022-09-20T06:47:28;10.63;;;5.60;;
3901;SDS011;1966;49.908;9.156;2022-09-20T06:52:27;9.93;;;7.37;;
3901;SDS011;1966;49.908;9.156;2022-09-20T06:57:28;11.13;;;7.30;;
3901;SDS011;1966;49.908;9.156;2022-09-20T07:02:30;14.20;;;7.57;;
3901;SDS011;1966;49.908;9.156;2022-09-20T07:07:29;13.83;;;7.10;;
3901;SDS011;1966;49.908;9.156;2022-09-20T07:12:29;15.90;;;7.43;;
3901;SDS011;1966;49.908;9.156;2022-09-20T07:17:31;12.50;;;8.20;;
3901;SDS011;1966;49.908;9.156;2022-09-20T07:22:31;16.20;;;8.10;;
3901;SDS011;1966;49.908;9.156;2022-09-20T07:27:30;13.17;;;6.47;;
3901;SDS011;1966;49.908;9.156;2022-09-20T07:32:31;13.80;;;6.70;;
3901;SDS011;1966;49.908;9.156;2022-09-20T07:37:30;13.53;;;5.70;;
3901;SDS011;1966;49.908;9.156;2022-09-20T07:42:30;12.03;;;6.50;;
3901;SDS011;1966;49.908;9.156;2022-09-20T07:47:29;10.73;;;5.33;;
3901;SDS011;1966;49.908;9.156;2022-09-20T07:52:31;14.87;;;5.40;;
3901;SDS011;1966;49.908;9.156;2022-09-20T07:57:33;16.93;;;5.10;;
3901;SDS011;1966;49.908;9.156;2022-09-20T08:02:33;8.70;;;5.27;;
3901;SDS011;1966;49.908;9.156;2022-09-20T08:07:33;11.50;;;5.53;;
3901;SDS011;1966;49.908;9.156;2022-09-20T08:12:33;8.93;;;5.90;;
3901;SDS011;1966;49.908;9.156;2022-09-20T08:17:32;8.17;;;5.60;;
3901;SDS011;1966;49.908;9.156;2022-09-20T08:22:31;21.17;;;6.80;;
3901;SDS011;1966;49.908;9.156;2022-09-20T08:27:33;11.80;;;7.10;;
3901;SDS011;1966;49.908;9.156;2022-09-20T08:32:32;9.60;;;6.27;;
3901;SDS011;1966;49.908;9.156;2022-09-20T08:37:31;14.10;;;6.90;;
3901;SDS011;1966;49.908;9.156;2022-09-20T08:42:31;14.23;;;7.30;;
3901;SDS011;1966;49.908;9.156;2022-09-20T08:47:33;11.60;;;6.30;;
3901;SDS011;1966;49.908;9.156;2022-09-20T08:52:34;11.40;;;6.83;;
3901;SDS011;1966;49.908;9.156;2022-09-20T08:57:36;12.00;;;6.30;;
3901;SDS011;1966;49.908;9.156;2022-09-20T09:02:37;16.67;;;6.80;;
3901;SDS011;1966;49.908;9.156;2022-09-20T09:07:36;11.43;;;5.60;;
3901;SDS011;1966;49.908;9.156;2022-09-20T09:12:37;9.90;;;5.33;;
3901;SDS011;1966;49.908;9.156;2022-09-20T09:17:38;9.73;;;4.80;;
3901;SDS011;1966;49.908;9.156;2022-09-20T09:22:38;11.10;;;5.80;;
3901;SDS011;1966;49.908;9.156;2022-09-20T09:27:48;14.13;;;4.90;;
3901;SDS011;1966;49.908;9.156;2022-09-20T09:32:49;8.87;;;5.10;;
3901;SDS011;1966;49.908;9.156;2022-09-20T09:37:51;11.97;;;4.93;;
3901;SDS011;1966;49.908;9.156;2022-09-20T09:42:52;9.70;;;4.53;;
3901;SDS011;1966;49.908;9.156;2022-09-20T09:47:53;6.50;;;4.63;;
3901;SDS011;1966;49.908;9.156;2022-09-20T09:52:59;9.87;;;4.53;;
3901;SDS011;1966;49.908;9.156;2022-09-20T09:57:58;7.00;;;4.37;;
3901;SDS011;1966;49.908;9.156;2022-09-20T10:03:16;7.63;;;4.70;;
3901;SDS011;1966;49.908;9.156;2022-09-20T10:08:22;12.70;;;5.53;;
3901;SDS011;1966;49.908;9.156;2022-09-20T10:13:25;11.57;;;4.37;;
3901;SDS011;1966;49.908;9.156;2022-09-20T10:18:32;7.60;;;3.60;;
3901;SDS011;1966;49.908;9.156;2022-09-20T10:23:44;8.97;;;4.23;;
3901;SDS011;1966;49.908;9.156;2022-09-20T10:28:48;9.73;;;4.33;;
3901;SDS011;1966;49.908;9.156;2022-09-20T10:33:54;6.83;;;4.53;;
3901;SDS011;1966;49.908;9.156;2022-09-20T10:38:58;15.40;;;5.93;;
3901;SDS011;1966;49.908;9.156;2022-09-20T10:44:04;11.40;;;5.53;;
3901;SDS011;1966;49.908;9.156;2022-09-20T10:49:20;7.87;;;4.40;;
3901;SDS011;1966;49.908;9.156;2022-09-20T10:54:28;12.73;;;3.70;;
3901;SDS011;1966;49.908;9.156;2022-09-20T10:59:34;7.67;;;3.80;;
3901;SDS011;1966;49.908;9.156;2022-09-20T11:04:41;6.00;;;4.10;;
3901;SDS011;1966;49.908;9.156;2022-09-20T11:09:46;8.07;;;3.80;;
3901;SDS011;1966;49.908;9.156;2022-09-20T11:14:48;4.33;;;2.90;;
3901;SDS011;1966;49.908;9.156;2022-09-20T11:19:51;4.40;;;3.20;;
3901;SDS011;1966;49.908;9.156;2022-09-20T11:24:54;2.70;;;2.10;;
3901;SDS011;1966;49.908;9.156;2022-09-20T11:29:57;5.33;;;2.80;;
3901;SDS011;1966;49.908;9.156;2022-09-20T11:35:02;5.93;;;2.27;;
3901;SDS011;1966;49.908;9.156;2022-09-20T11:40:07;6.83;;;2.10;;
3901;SDS011;1966;49.908;9.156;2022-09-20T11:45:10;9.67;;;2.30;;
3901;SDS011;1966;49.908;9.156;2022-09-20T11:50:22;3.97;;;2.10;;
3901;SDS011;1966;49.908;9.156;2022-09-20T11:55:26;8.27;;;2.00;;
3901;SDS011;1966;49.908;9.156;2022-09-20T12:00:27;6.07;;;2.23;;
3901;SDS011;1966;49.908;9.156;2022-09-20T12:05:30;4.97;;;1.93;;
3901;SDS011;1966;49.908;9.156;2022-09-20T12:10:31;3.20;;;1.83;;
3901;SDS011;1966;49.908;9.156;2022-09-20T12:15:33;5.53;;;2.40;;
3901;SDS011;1966;49.908;9.156;2022-09-20T12:25:59;4.33;;;2.30;;
3901;SDS011;1966;49.908;9.156;2022-09-20T12:36:17;6.50;;;2.10;;
3901;SDS011;1966;49.908;9.156;2022-09-20T12:41:18;5.07;;;2.70;;
3901;SDS011;1966;49.908;9.156;2022-09-20T12:46:20;5.53;;;2.40;;
3901;SDS011;1966;49.908;9.156;2022-09-20T12:51:21;8.23;;;2.70;;
3901;SDS011;1966;49.908;9.156;2022-09-20T12:56:41;7.93;;;2.70;;
3901;SDS011;1966;49.908;9.156;2022-09-20T13:01:43;8.07;;;3.27;;
3901;SDS011;1966;49.908;9.156;2022-09-20T13:06:43;6.23;;;3.77;;
3901;SDS011;1966;49.908;9.156;2022-09-20T13:11:44;4.13;;;3.23;;
3901;SDS011;1966;49.908;9.156;2022-09-20T13:16:49;5.03;;;2.73;;
3901;SDS011;1966;49.908;9.156;2022-09-20T13:21:52;4.93;;;3.60;;
3901;SDS011;1966;49.908;9.156;2022-09-20T13:26:54;4.80;;;2.80;;
3901;SDS011;1966;49.908;9.156;2022-09-20T13:31:54;3.60;;;2.43;;
3901;SDS011;1966;49.908;9.156;2022-09-20T13:36:55;7.10;;;4.63;;
3901;SDS011;1966;49.908;9.156;2022-09-20T13:42:01;7.53;;;2.17;;
3901;SDS011;1966;49.908;9.156;2022-09-20T13:52:22;8.03;;;6.30;;
3901;SDS011;1966;49.908;9.156;2022-09-20T13:57:24;4.10;;;2.50;;
3901;SDS011;1966;49.908;9.156;2022-09-20T14:02:26;4.87;;;2.73;;
3901;SDS011;1966;49.908;9.156;2022-09-20T14:07:26;5.13;;;2.80;;
3901;SDS011;1966;49.908;9.156;2022-09-20T14:12:27;3.30;;;2.60;;
3901;SDS011;1966;49.908;9.156;2022-09-20T14:17:27;4.63;;;2.60;;
3901;SDS011;1966;49.908;9.156;2022-09-20T14:22:29;4.77;;;3.33;;
3901;SDS011;1966;49.908;9.156;2022-09-20T14:27:30;4.70;;;3.50;;
3901;SDS011;1966;49.908;9.156;2022-09-20T14:32:32;6.30;;;4.37;;
3901;SDS011;1966;49.908;9.156;2022-09-20T14:37:34;3.40;;;3.00;;
3901;SDS011;1966;49.908;9.156;2022-09-20T14:42:35;4.60;;;3.10;;
3901;SDS011;1966;49.908;9.156;2022-09-20T14:47:48;6.10;;;2.47;;
3901;SDS011;1966;49.908;9.156;2022-09-20T14:53:00;3.30;;;2.77;;
3901;SDS011;1966;49.908;9.156;2022-09-20T14:58:02;3.10;;;2.43;;
3901;SDS011;1966;49.908;9.156;2022-09-20T15:03:12;3.00;;;2.77;;
3901;SDS011;1966;49.908;9.156;2022-09-20T15:08:13;2.83;;;2.20;;
3901;SDS011;1966;49.908;9.156;2022-09-20T15:13:16;2.93;;;2.20;;
3901;SDS011;1966;49.908;9.156;2022-09-20T15:18:17;2.43;;;2.23;;
3901;SDS011;1966;49.908;9.156;2022-09-20T15:23:18;2.53;;;2.33;;
3901;SDS011;1966;49.908;9.156;2022-09-20T15:28:19;2.93;;;2.17;;
3901;SDS011;1966;49.908;9.156;2022-09-20T15:33:19;3.03;;;2.23;;
3901;SDS011;1966;49.908;9.156;2022-09-20T15:38:18;6.03;;;2.70;;
3901;SDS011;1966;49.908;9.156;2022-09-20T15:43:21;3.50;;;2.20;;
3901;SDS011;1966;49.908;9.156;2022-09-20T15:48:24;2.77;;;2.37;;
3901;SDS011;1966;49.908;9.156;2022-09-20T15:53:24;3.77;;;2.50;;
3901;SDS011;1966;49.908;9.156;2022-09-20T15:58:24;4.17;;;3.40;;
3901;SDS011;1966;49.908;9.156;2022-09-20T16:03:27;6.23;;;4.10;;
3901;SDS011;1966;49.908;9.156;2022-09-20T16:08:29;6.37;;;3.20;;
3901;SDS011;1966;49.908;9.156;2022-09-20T16:13:30;3.70;;;2.77;;
3901;SDS011;1966;49.908;9.156;2022-09-20T16:18:30;3.10;;;2.50;;
3901;SDS011;1966;49.908;9.156;2022-09-20T16:23:47;3.50;;;3.20;;
3901;SDS011;1966;49.908;9.156;2022-09-20T16:28:48;4.23;;;3.30;;
3901;SDS011;1966;49.908;9.156;2022-09-20T16:33:47;5.77;;;4.53;;
3901;SDS011;1966;49.908;9.156;2022-09-20T16:38:47;6.67;;;3.50;;
3901;SDS011;1966;49.908;9.156;2022-09-20T16:43:46;4.83;;;4.00;;
3901;SDS011;1966;49.908;9.156;2022-09-20T16:48:50;4.73;;;3.63;;
3901;SDS011;1966;49.908;9.156;2022-09-20T16:53:50;8.83;;;4.67;;
3901;SDS011;1966;49.908;9.156;2022-09-20T16:58:52;7.63;;;5.77;;
3901;SDS011;1966;49.908;9.156;2022-09-20T17:03:53;9.97;;;7.40;;
3901;SDS011;1966;49.908;9.156;2022-09-20T17:08:54;10.67;;;6.77;;
3901;SDS011;1966;49.908;9.156;2022-09-20T17:13:55;9.10;;;6.70;;
3901;SDS011;1966;49.908;9.156;2022-09-20T17:18:56;7.60;;;4.00;;
3901;SDS011;1966;49.908;9.156;2022-09-20T17:23:57;10.10;;;4.37;;
3901;SDS011;1966;49.908;9.156;2022-09-20T17:28:56;6.83;;;3.20;;
3901;SDS011;1966;49.908;9.156;2022-09-20T17:33:57;6.43;;;4.70;;
3901;SDS011;1966;49.908;9.156;2022-09-20T17:38:58;6.23;;;5.27;;
3901;SDS011;1966;49.908;9.156;2022-09-20T17:43:58;6.03;;;4.10;;
3901;SDS011;1966;49.908;9.156;2022-09-20T17:48:59;9.03;;;4.00;;
3901;SDS011;1966;49.908;9.156;2022-09-20T17:53:59;3.47;;;2.80;;
3901;SDS011;1966;49.908;9.156;2022-09-20T17:58:58;8.17;;;4.40;;
3901;SDS011;1966;49.908;9.156;2022-09-20T18:04:00;6.93;;;6.27;;
3901;SDS011;1966;49.908;9.156;2022-09-20T18:09:00;7.93;;;7.23;;
3901;SDS011;1966;49.908;9.156;2022-09-20T18:14:01;8.00;;;7.03;;
3901;SDS011;1966;49.908;9.156;2022-09-20T18:19:02;7.63;;;6.23;;
3901;SDS011;1966;49.908;9.156;2022-09-20T18:24:03;6.40;;;4.63;;
3901;SDS011;1966;49.908;9.156;2022-09-20T18:29:03;5.70;;;4.27;;
3901;SDS011;1966;49.908;9.156;2022-09-20T18:34:05;4.23;;;3.67;;
3901;SDS011;1966;49.908;9.156;2022-09-20T18:39:04;5.10;;;4.23;;
3901;SDS011;1966;49.908;9.156;2022-09-20T18:44:04;6.73;;;4.73;;
3901;SDS011;1966;49.908;9.156;2022-09-20T18:49:06;7.97;;;4.27;;
3901;SDS011;1966;49.908;9.156;2022-09-20T18:54:07;5.97;;;3.70;;
3901;SDS011;1966;49.908;9.156;2022-09-20T18:59:12;5.47;;;4.50;;
3901;SDS011;1966;49.908;9.156;2022-09-20T19:04:21;5.33;;;4.80;;
3901;SDS011;1966;49.908;9.156;2022-09-20T19:09:23;4.97;;;4.50;;
3901;SDS011;1966;49.908;9.156;2022-09-20T19:14:25;5.00;;;4.50;;
3901;SDS011;1966;49.908;9.156;2022-09-20T19:24:45;12.83;;;9.17;;
3901;SDS011;1966;49.908;9.156;2022-09-20T19:29:47;20.23;;;13.53;;
3901;SDS011;1966;49.908;9.156;2022-09-20T19:34:48;19.13;;;12.20;;
3901;SDS011;1966;49.908;9.156;2022-09-20T19:39:52;16.73;;;8.40;;
3901;SDS011;1966;49.908;9.156;2022-09-20T19:44:57;6.10;;;4.77;;
3901;SDS011;1966;49.908;9.156;2022-09-20T19:50:02;4.90;;;4.30;;
3901;SDS011;1966;49.908;9.156;2022-09-20T19:55:04;5.53;;;4.60;;
3901;SDS011;1966;49.908;9.156;2022-09-20T20:00:04;6.23;;;4.40;;
3901;SDS011;1966;49.908;9.156;2022-09-20T20:05:05;5.87;;;4.27;;
3901;SDS011;1966;49.908;9.156;2022-09-20T20:10:09;10.73;;;5.70;;
3901;SDS011;1966;49.908;9.156;2022-09-20T20:15:15;5.20;;;4.70;;
3901;SDS011;1966;49.908;9.156;2022-09-20T20:20:18;5.03;;;4.00;;
3901;SDS011;1966;49.908;9.156;2022-09-20T20:25:23;6.57;;;4.80;;
3901;SDS011;1966;49.908;9.156;2022-09-20T20:30:26;6.40;;;4.10;;
3901;SDS011;1966;49.908;9.156;2022-09-20T20:35:25;4.53;;;3.30;;
3901;SDS011;1966;49.908;9.156;2022-09-20T20:40:26;5.70;;;4.17;;
3901;SDS011;1966;49.908;9.156;2022-09-20T20:45:26;5.73;;;3.93;;
3901;SDS011;1966;49.908;9.156;2022-09-20T20:50:25;5.63;;;3.63;;
3901;SDS011;1966;49.908;9.156;2022-09-20T20:55:27;4.73;;;3.73;;
3901;SDS011;1966;49.908;9.156;2022-09-20T21:00:28;6.07;;;3.90;;
3901;SDS011;1966;49.908;9.156;2022-09-20T21:05:28;7.13;;;4.37;;
3901;SDS011;1966;49.908;9.156;2022-09-20T21:10:28;4.33;;;3.60;;
3901;SDS011;1966;49.908;9.156;2022-09-20T21:15:28;5.53;;;4.20;;
3901;SDS011;1966;49.908;9.156;2022-09-20T21:20:27;4.50;;;3.63;;
3901;SDS011;1966;49.908;9.156;2022-09-20T21:25:29;7.20;;;4.60;;
3901;SDS011;1966;49.908;9.156;2022-09-20T21:30:28;5.83;;;4.00;;
3901;SDS011;1966;49.908;9.156;2022-09-20T21:35:28;5.63;;;4.03;;
3901;SDS011;1966;49.908;9.156;2022-09-20T21:40:27;4.97;;;3.87;;
3901;SDS011;1966;49.908;9.156;2022-09-20T21:45:28;5.27;;;3.87;;
3901;SDS011;1966;49.908;9.156;2022-09-20T21:50:27;9.03;;;4.30;;
3901;SDS011;1966;49.908;9.156;2022-09-20T21:55:26;5.20;;;4.17;;
3901;SDS011;1966;49.908;9.156;2022-09-20T22:00:26;5.20;;;3.83;;
3901;SDS011;1966;49.908;9.156;2022-09-20T22:05:26;4.77;;;4.27;;
3901;SDS011;1966;49.908;9.156;2022-09-20T22:10:26;6.17;;;3.83;;
3901;SDS011;1966;49.908;9.156;2022-09-20T22:15:25;4.73;;;3.70;;
3901;SDS011;1966;49.908;9.156;2022-09-20T22:20:24;4.90;;;3.73;;
3901;SDS011;1966;49.908;9.156;2022-09-20T22:25:25;5.40;;;4.23;;
3901;SDS011;1966;49.908;9.156;2022-09-20T22:30:24;4.43;;;4.03;;
3901;SDS011;1966;49.908;9.156;2022-09-20T22:35:23;4.13;;;3.67;;
3901;SDS011;1966;49.908;9.156;2022-09-20T22:40:23;3.50;;;3.20;;
3901;SDS011;1966;49.908;9.156;2022-09-20T22:45:23;3.63;;;3.33;;
3901;SDS011;1966;49.908;9.156;2022-09-20T22:50:22;4.77;;;4.27;;
3901;SDS011;1966;49.908;9.156;2022-09-20T22:55:22;4.07;;;3.67;;
3901;SDS011;1966;49.908;9.156;2022-09-20T23:00:21;4.20;;;3.80;;
3901;SDS011;1966;49.908;9.156;2022-09-20T23:05:22;4.47;;;3.53;;
3901;SDS011;1966;49.908;9.156;2022-09-20T23:10:21;5.90;;;3.53;;
3901;SDS011;1966;49.908;9.156;2022-09-20T23:15:20;4.30;;;3.90;;
3901;SDS011;1966;49.908;9.156;2022-09-20T23:20:19;5.57;;;3.80;;
3901;SDS011;1966;49.908;9.156;2022-09-20T23:25:20;4.10;;;3.70;;
3901;SDS011;1966;49.908;9.156;2022-09-20T23:30:19;4.00;;;3.20;;
3901;SDS011;1966;49.908;9.156;2022-09-20T23:35:19;4.77;;;3.90;;
3901;SDS011;1966;49.908;9.156;2022-09-20T23:40:18;6.53;;;4.00;;
3901;SDS011;1966;49.908;9.156;2022-09-20T23:45:18;5.90;;;4.00;;
3901;SDS011;1966;49.908;9.156;2022-09-20T23:50:18;4.73;;;3.83;;
3901;SDS011;1966;49.908;9.156;2022-09-20T23:55:17;6.10;;;3.93;;
